Current | Forecast
Updated: 11:30 AM EEST on April 27, 2017
Observed at L'viv, Poland
Temperature 16°C
Humidity 55%
Dew Point 7°C
Wind West at 14 km/h
Pressure 1010 hPa (Steady)
Conditions Clear
Visibility -
UV N/A
Clouds
Yesterday's Maximum 19°C
Yesterday's Minimum 9°C approx.
Yesterday's Heating Degree Days 8 approx.
Sunrise5:08 AM CEST
Sunset7:39 PM CEST
Moon Rise6:07 AM CEST
Moon Set8:52 PM CEST
Moon PhaseMoon Phase
New Moon
Raw METARMETAR UKLL 270830Z 27004MPS 240V330 CAVOK 16/07 Q1010 R31/CLRD// NOSIG


Monday
. High: 62° F.
Tuesday
. High: 57° F.
Wednesday
. High: 75° F.
Thursday
. High: 77° F.
Friday
. High: 69° F.
Saturday
. High: 64° F.
Sunday
. High: 69° F.
Monday
. High: 73° F.

Units: English | Metric

Find the Weather for any City, State or Zipcode, or Country:

U.S. State List | Severe Weather | Tropical Storms | Ski Conditions
United States | Canada | Central America | South America | Asia | Europe | Australia | Africa | Islands

Weather Underground

© Copyright 2017
The Weather Company, LLC